Accueil
METAR-TAF:

METAR-TAF

Aéroports :

Aéroport de Bristol

Bristol, Angleterre

latitude: 51-23N, longitude: 002-43W, altitude: 189 m

Observation

Le bulletin a été fait il y a 35 minutes, à 02:20 UTC
Vent 6 kt de est/nord-est
Température 10°C
Humidité 66%
Pression 1025 hPa
Visibilité 10 km ou plus

METAR: EGGD 080220Z AUTO 07006KT 9999 NCD 10/04 Q1025

Heure: 03:55 (02:55 UTC)

Prévision

Le bulletin a été fait il y a 3 heures et 57 minutes, à 22:58 UTC
Prévision valable du 08 à 00 UTC au 08 à 24 UTC
Vent 4 kt de est
Visibilité 10 km ou plus
Quelques nuages à une hauteur de 4500 ft
Probabilité 30%
du 08 à 02 UTC au 08 à 08 UTC
Visibilité: 8000 m
Probabilité 30% :
Temporairement
du 08 à 12 UTC au 08 à 18 UTC
Visibilité: 7000 m
averses de pluie

TAF: EGGD 072258Z 0800/0824 09004KT 9999 FEW045 PROB30 0802/0808 8000 PROB30 TEMPO 0812/0818 7000 SHRA

Observations et prévisions météorologiques de plus de 4000 aéroports (messages METAR et TAF).

Les stations disponibles sont représentées par des disques jaunes et rouges sur la carte.

Passer la souris dessus pour voir le nom de la station.

Cliquer dessus pour voir les observations et prévisions météorologiques.

Pour changer de carte: cliquez sur les boutons verts avec une croix noire pour zoomer, sur le bouton vert avec un tiret pour effectuer un zoom arrière, ou sur les flèches vertes pour les cartes adjacentes.


METAR-TAF: